Time;durP1;ratioP1;P1;durP2;ratioP2;P2;SDS_P1;SDS_P2;PMS_P1;PMS_P2;Temp;Humidity;BMP_temperature;BMP_pressure;BME280_temperature;BME280_humidity;BME280_pressure;Samples;Min_cycle;Max_cycle;Signal;HPM_P1;HPM_P2
2023/08/09 00:05:21;;;;;;;4.37;2.67;;;17.70;95.40;;;;;;21077424;28;20233;-61
2023/08/09 00:15:23;;;;;;;6.40;3.30;;;17.70;96.30;;;;;;21076903;28;20294;-61
2023/08/09 00:25:25;;;;;;;8.70;3.33;;;17.60;97.20;;;;;;21077351;28;20696;-61
2023/08/09 00:35:27;;;;;;;5.63;2.80;;;17.40;98.20;;;;;;21076767;28;20587;-66
2023/08/09 00:45:29;;;;;;;5.00;3.23;;;17.40;99.10;;;;;;21076768;28;20200;-69
2023/08/09 00:55:31;;;;;;;5.30;2.97;;;17.40;99.70;;;;;;21090433;28;20705;-62
2023/08/09 01:05:44;;;;;;;4.60;2.90;;;17.40;99.90;;;;;;21089752;28;20557;-61
2023/08/09 01:15:50;;;;;;;4.40;2.83;;;17.40;99.90;;;;;;21088465;28;20228;-62
2023/08/09 01:25:51;;;;;;;7.83;3.10;;;17.40;99.90;;;;;;21088413;28;20212;-61
2023/08/09 01:35:59;;;;;;;8.97;3.17;;;17.40;99.90;;;;;;21087923;28;20316;-61
2023/08/09 01:46:01;;;;;;;6.50;3.10;;;17.40;99.90;;;;;;21086451;28;20795;-62
2023/08/09 01:56:03;;;;;;;5.00;2.83;;;17.40;99.90;;;;;;21084962;28;20235;-62
2023/08/09 02:06:05;;;;;;;5.00;3.00;;;17.40;99.90;;;;;;21085074;28;20695;-62
2023/08/09 02:16:08;;;;;;;4.73;2.70;;;17.30;99.90;;;;;;21083862;28;20252;-62
2023/08/09 02:26:09;;;;;;;5.17;3.10;;;17.20;99.90;;;;;;21083358;28;20213;-61
2023/08/09 02:36:11;;;;;;;5.03;3.10;;;17.30;99.90;;;;;;21054280;28;20241;-62
2023/08/09 02:46:13;;;;;;;7.83;3.03;;;17.30;99.90;;;;;;21020118;28;20265;-61
2023/08/09 02:56:15;;;;;;;8.27;2.57;;;17.20;99.90;;;;;;20997222;28;20241;-64
2023/08/09 03:06:18;;;;;;;3.00;2.47;;;17.20;99.90;;;;;;21054024;28;20723;-62
2023/08/09 03:16:21;;;;;;;4.90;2.43;;;17.30;99.90;;;;;;21078974;28;20695;-64
2023/08/09 03:26:23;;;;;;;3.27;2.60;;;17.20;99.90;;;;;;21079280;28;20208;-64
2023/08/09 03:36:25;;;;;;;4.43;2.60;;;17.20;99.90;;;;;;21079002;28;20262;-65
2023/08/09 03:46:26;;;;;;;4.87;2.83;;;17.20;99.90;;;;;;21078452;28;20210;-66
2023/08/09 03:56:28;;;;;;;5.43;2.70;;;17.20;99.90;;;;;;21077971;28;20225;-65
2023/08/09 04:06:30;;;;;;;7.30;3.97;;;17.10;99.90;;;;;;21077354;28;20238;-67
2023/08/09 04:16:32;;;;;;;4.17;2.50;;;17.10;99.90;;;;;;21077017;28;20242;-61
2023/08/09 04:26:33;;;;;;;4.40;2.50;;;17.10;99.90;;;;;;21089082;28;20213;-61
2023/08/09 04:36:35;;;;;;;5.13;2.70;;;17.10;99.90;;;;;;21092263;28;20689;-61
2023/08/09 04:46:37;;;;;;;3.83;2.30;;;17.10;99.90;;;;;;21091048;28;20217;-62
2023/08/09 04:56:39;;;;;;;3.97;2.27;;;17.10;99.90;;;;;;21089717;28;20714;-61
2023/08/09 05:06:41;;;;;;;3.87;2.30;;;17.20;99.90;;;;;;21088702;28;20224;-63
2023/08/09 05:16:43;;;;;;;5.13;2.27;;;17.20;99.90;;;;;;21088367;28;20320;-62
2023/08/09 05:26:45;;;;;;;4.03;2.40;;;17.20;99.90;;;;;;21088048;28;20207;-68
2023/08/09 05:36:47;;;;;;;5.90;2.70;;;17.20;99.90;;;;;;21086394;28;20324;-67
2023/08/09 05:46:49;;;;;;;4.37;2.40;;;17.30;99.90;;;;;;21086235;28;20208;-69
2023/08/09 05:56:51;;;;;;;2.83;2.40;;;17.40;99.90;;;;;;21084996;28;20228;-63
2023/08/09 06:06:52;;;;;;;5.27;2.60;;;17.50;99.90;;;;;;21084733;28;20235;-62
2023/08/09 06:16:55;;;;;;;5.60;2.23;;;17.60;99.90;;;;;;21083453;28;20324;-63
2023/08/09 06:26:57;;;;;;;5.20;2.70;;;17.70;99.90;;;;;;21082844;28;20210;-68
2023/08/09 06:36:59;;;;;;;4.50;2.40;;;17.80;99.90;;;;;;21055036;28;20594;-62
2023/08/09 06:47:01;;;;;;;3.60;2.23;;;17.90;99.90;;;;;;20997305;28;20208;-62
2023/08/09 06:57:04;;;;;;;4.33;2.23;;;18.10;99.90;;;;;;20996886;28;20318;-62
2023/08/09 07:07:07;;;;;;;5.63;2.20;;;18.30;99.90;;;;;;21061281;28;20628;-63
2023/08/09 07:17:09;;;;;;;4.77;3.20;;;18.30;99.90;;;;;;21079624;28;20232;-70
2023/08/09 07:27:11;;;;;;;5.20;2.40;;;18.30;99.90;;;;;;21079109;28;20212;-70
2023/08/09 07:37:12;;;;;;;3.00;2.30;;;18.60;99.90;;;;;;21078703;28;20269;-62
2023/08/09 07:47:14;;;;;;;5.47;2.90;;;18.60;99.90;;;;;;21077985;28;20212;-64
2023/08/09 07:57:16;;;;;;;7.13;3.63;;;18.60;99.90;;;;;;21064952;28;20250;-63
2023/08/09 08:07:17;;;;;;;3.60;2.20;;;18.50;99.90;;;;;;21094184;28;20264;-65
2023/08/09 08:17:19;;;;;;;6.50;2.53;;;18.50;99.90;;;;;;21093352;28;20598;-64
2023/08/09 08:27:21;;;;;;;3.60;2.33;;;18.60;99.90;;;;;;21092524;28;20206;-68
2023/08/09 08:37:23;;;;;;;2.73;2.10;;;18.60;99.90;;;;;;21091753;28;20253;-66
2023/08/09 08:47:26;;;;;;;2.97;1.47;;;18.60;99.90;;;;;;21091308;28;20209;-64
2023/08/09 08:57:29;;;;;;;1.27;1.10;;;18.00;99.90;;;;;;21090016;28;20327;-64
2023/08/09 09:07:31;;;;;;;2.43;1.10;;;17.60;99.90;;;;;;21087800;28;20234;-63
2023/08/09 09:17:38;;;;;;;1.13;1.00;;;17.40;99.90;;;;;;21089031;28;20245;-63
2023/08/09 09:27:42;;;;;;;3.37;1.50;;;17.40;99.90;;;;;;21087508;28;20258;-64
2023/08/09 09:37:48;;;;;;;1.27;1.10;;;17.40;99.90;;;;;;21086691;28;20231;-64
2023/08/09 09:47:52;;;;;;;1.50;1.30;;;17.50;99.90;;;;;;21086289;28;20243;-64
2023/08/09 09:57:55;;;;;;;1.57;1.20;;;17.50;99.90;;;;;;21085700;28;20234;-63
2023/08/09 10:07:58;;;;;;;2.97;1.10;;;17.60;99.90;;;;;;21084100;28;20240;-63
2023/08/09 10:18:25;;;;;;;1.30;1.20;;;17.90;99.90;;;;;;21083662;28;20703;-69
2023/08/09 10:28:39;;;;;;;2.60;1.23;;;17.90;99.90;;;;;;21044771;28;20280;-66
2023/08/09 10:38:41;;;;;;;4.20;1.10;;;18.10;99.90;;;;;;20998108;28;20701;-68
2023/08/09 10:48:54;;;;;;;2.93;1.40;;;18.30;99.90;;;;;;20997689;28;20286;-71
2023/08/09 10:59:06;;;;;;;2.43;1.90;;;18.50;99.90;;;;;;20996614;28;20701;-69
2023/08/09 11:09:16;;;;;;;2.67;1.43;;;18.60;99.90;;;;;;21077623;28;20641;-70
2023/08/09 11:19:20;;;;;;;1.13;1.03;;;19.00;99.90;;;;;;21080137;28;20234;-72
2023/08/09 11:29:37;;;;;;;2.70;1.00;;;19.30;99.90;;;;;;21078493;28;20297;-65
2023/08/09 11:39:39;;;;;;;2.73;1.23;;;19.50;99.90;;;;;;21078268;28;20234;-64
2023/08/09 11:49:41;;;;;;;2.83;1.53;;;19.70;99.90;;;;;;21077608;28;20210;-68
2023/08/09 11:59:43;;;;;;;1.30;1.20;;;19.90;99.80;;;;;;21077540;28;20234;-68
2023/08/09 12:09:45;;;;;;;1.07;1.00;;;20.20;99.00;;;;;;21077126;28;20325;-63
2023/08/09 12:19:47;;;;;;;0.80;0.80;;;20.40;98.50;;;;;;21056261;28;20241;-65
2023/08/09 12:29:49;;;;;;;1.10;1.00;;;20.40;98.10;;;;;;21030946;28;20210;-66
2023/08/09 12:39:51;;;;;;;0.90;0.90;;;20.40;97.80;;;;;;21032078;28;20705;-66
2023/08/09 12:49:53;;;;;;;1.20;1.10;;;20.40;97.50;;;;;;21042805;28;20211;-65
2023/08/09 12:59:56;;;;;;;1.50;1.10;;;20.30;97.20;;;;;;21041509;28;20237;-64
2023/08/09 13:09:58;;;;;;;1.17;0.93;;;20.20;97.40;;;;;;21043885;28;20227;-64
2023/08/09 13:19:59;;;;;;;3.07;2.07;;;20.20;97.10;;;;;;21032915;28;20671;-64
2023/08/09 13:30:05;;;;;;;4.80;1.63;;;20.20;97.00;;;;;;21038839;28;20211;-63
2023/08/09 13:40:11;;;;;;;3.33;2.43;;;20.00;96.60;;;;;;21039268;28;20665;-62
2023/08/09 13:50:14;;;;;;;2.87;1.60;;;19.80;96.10;;;;;;21045176;28;20389;-65
2023/08/09 14:00:15;;;;;;;3.10;1.70;;;19.80;96.00;;;;;;21034546;28;20691;-64
2023/08/09 14:10:17;;;;;;;2.57;1.30;;;19.80;95.30;;;;;;21043219;28;20237;-66
2023/08/09 14:20:19;;;;;;;1.53;1.10;;;19.70;94.70;;;;;;21025543;28;20235;-65
2023/08/09 14:30:22;;;;;;;1.63;1.37;;;19.80;95.00;;;;;;21011483;28;20199;-70
2023/08/09 14:40:24;;;;;;;2.13;1.60;;;19.90;95.20;;;;;;20998164;28;20270;-63
2023/08/09 14:50:26;;;;;;;1.30;1.20;;;19.80;95.10;;;;;;20997545;28;20207;-68
2023/08/09 15:00:27;;;;;;;1.90;1.80;;;19.80;95.40;;;;;;21000790;28;20238;-66
2023/08/09 15:10:30;;;;;;;3.43;1.47;;;19.70;95.40;;;;;;21036251;28;20256;-63
2023/08/09 15:20:32;;;;;;;1.60;1.50;;;19.70;95.30;;;;;;21034709;28;20262;-65
2023/08/09 15:30:33;;;;;;;3.00;1.80;;;19.70;95.10;;;;;;21034777;28;20199;-64
2023/08/09 15:40:35;;;;;;;2.40;2.20;;;19.80;94.90;;;;;;21030659;28;20321;-63
2023/08/09 15:50:37;;;;;;;2.60;1.73;;;20.00;94.60;;;;;;21030236;28;20202;-67
2023/08/09 16:00:39;;;;;;;3.43;1.60;;;20.40;93.70;;;;;;21033213;28;20341;-64
2023/08/09 16:10:56;;;;;;;6.83;2.60;;;20.40;92.40;;;;;;21029987;28;20272;-64
2023/08/09 16:20:58;;;;;;;2.80;2.37;;;20.50;90.60;;;;;;21039382;28;20284;-64
2023/08/09 16:31:00;;;;;;;2.60;1.70;;;20.80;88.70;;;;;;21051206;28;20614;-64
2023/08/09 16:41:02;;;;;;;3.80;1.63;;;20.60;85.10;;;;;;21073392;28;20685;-61
2023/08/09 16:51:04;;;;;;;1.17;1.07;;;20.80;81.80;;;;;;21090491;28;20324;-69
2023/08/09 17:01:12;;;;;;;2.00;1.10;;;21.00;78.00;;;;;;21022796;28;20589;-66
2023/08/09 17:11:13;;;;;;;3.80;1.47;;;21.10;73.50;;;;;;21005180;28;20273;-67
2023/08/09 17:21:15;;;;;;;1.93;1.20;;;21.50;70.80;;;;;;21004856;28;20235;-64
2023/08/09 17:31:17;;;;;;;2.90;1.60;;;21.30;70.70;;;;;;21003126;28;20209;-68
2023/08/09 17:41:19;;;;;;;4.63;1.80;;;21.20;69.40;;;;;;21003442;28;20638;-64
2023/08/09 17:51:20;;;;;;;5.73;1.30;;;21.10;70.00;;;;;;21012931;28;20290;-63
2023/08/09 18:01:23;;;;;;;4.87;1.53;;;20.90;70.40;;;;;;21044671;28;20265;-67
2023/08/09 18:11:26;;;;;;;2.60;1.47;;;20.60;70.30;;;;;;21040225;28;20604;-69
2023/08/09 18:21:28;;;;;;;2.80;1.30;;;20.30;71.10;;;;;;21031826;28;20234;-64
2023/08/09 18:31:30;;;;;;;1.53;1.43;;;20.00;72.20;;;;;;21042201;28;20714;-70
2023/08/09 18:41:32;;;;;;;4.90;1.90;;;19.80;73.30;;;;;;21034203;28;20307;-74
2023/08/09 18:51:34;;;;;;;3.40;1.70;;;19.50;74.50;;;;;;21031066;28;20249;-74
2023/08/09 19:01:36;;;;;;;2.63;1.70;;;19.20;76.80;;;;;;21039615;28;20810;-70
2023/08/09 19:11:38;;;;;;;4.40;1.87;;;19.00;79.40;;;;;;21031857;28;20263;-68
2023/08/09 19:21:40;;;;;;;2.87;1.80;;;18.70;81.50;;;;;;21029347;28;20322;-64
2023/08/09 19:31:42;;;;;;;5.13;2.13;;;18.50;84.00;;;;;;21026860;28;20225;-68
2023/08/09 19:41:44;;;;;;;5.23;2.37;;;18.30;87.00;;;;;;21025851;28;20245;-68
2023/08/09 19:51:49;;;;;;;6.23;2.13;;;18.10;89.40;;;;;;21010176;28;20298;-65
2023/08/09 20:01:51;;;;;;;7.77;2.23;;;17.90;90.70;;;;;;21051421;28;20234;-70
2023/08/09 20:11:53;;;;;;;4.37;2.10;;;17.60;91.50;;;;;;21018946;28;20246;-67
2023/08/09 20:21:55;;;;;;;3.53;2.40;;;17.50;92.30;;;;;;21008162;28;20244;-62
2023/08/09 20:31:56;;;;;;;3.17;2.37;;;17.40;93.00;;;;;;21008342;28;20671;-62
2023/08/09 20:41:59;;;;;;;4.40;2.37;;;17.10;93.60;;;;;;21008346;28;20591;-68
2023/08/09 20:52:02;;;;;;;3.10;2.23;;;17.00;94.40;;;;;;21007169;28;20208;-63
2023/08/09 21:02:04;;;;;;;7.73;2.97;;;16.80;95.00;;;;;;21005842;28;20610;-64
2023/08/09 21:12:07;;;;;;;8.53;2.63;;;16.70;95.60;;;;;;21005636;28;20325;-63
2023/08/09 21:22:08;;;;;;;4.27;2.23;;;16.50;96.20;;;;;;21005060;28;20241;-62
2023/08/09 21:32:12;;;;;;;5.40;2.60;;;16.30;96.80;;;;;;21004548;28;20264;-66
2023/08/09 21:42:16;;;;;;;3.27;2.37;;;16.10;97.30;;;;;;21003340;28;20241;-68
2023/08/09 21:52:19;;;;;;;3.50;2.20;;;;;;;;;;21002616;28;20214;-62
2023/08/09 22:02:21;;;;;;;4.00;2.60;;;;;;;;;;21002284;28;20227;-68
2023/08/09 22:12:23;;;;;;;2.80;2.27;;;;;;;;;;21000896;28;20232;-70
2023/08/09 22:22:25;;;;;;;7.53;2.57;;;;;;;;;;20999615;28;20235;-62
2023/08/09 22:32:27;;;;;;;7.03;2.30;;;15.40;98.40;;;;;;20999720;28;20620;-69
2023/08/09 22:42:29;;;;;;;10.17;2.50;;;15.30;98.60;;;;;;20980952;28;20593;-67
2023/08/09 22:52:31;;;;;;;9.57;2.20;;;15.20;99.10;;;;;;20997910;28;20221;-64
2023/08/09 23:02:34;;;;;;;3.43;2.10;;;15.10;99.30;;;;;;20997222;28;20242;-62
2023/08/09 23:12:36;;;;;;;2.30;2.10;;;15.10;99.40;;;;;;20996239;28;20299;-65
2023/08/09 23:22:37;;;;;;;8.77;3.27;;;15.00;99.40;;;;;;21007322;28;20242;-71
2023/08/09 23:32:41;;;;;;;6.67;2.43;;;;;;;;;;20995212;28;20651;-68
2023/08/09 23:42:43;;;;;;;5.97;2.40;;;;;;;;;;20995683;28;20267;-64
2023/08/09 23:52:45;;;;;;;4.67;2.37;;;;;;;;;;20995022;28;20211;-70
